createdAt,value
2017-11-18T15:38:03.213Z,4.90
2017-11-18T15:40:18.165Z,5.00
2017-11-18T15:40:53.348Z,4.90
2017-11-18T15:41:28.623Z,6.20
2017-11-18T15:42:04.000Z,7.00
2017-11-18T15:42:39.261Z,5.20
2017-11-18T15:43:14.880Z,4.20
2017-11-18T15:43:50.240Z,6.60
2017-11-18T15:44:25.619Z,10.50
2017-11-18T15:45:00.970Z,18.00
2017-11-18T15:45:36.649Z,18.00
2017-11-18T15:46:11.933Z,8.80
2017-11-18T15:46:47.095Z,8.20
2017-11-18T15:47:22.276Z,4.70
2017-11-18T15:47:57.426Z,4.10
2017-11-18T15:48:32.746Z,3.90
2017-11-18T15:49:07.932Z,4.90
2017-11-18T15:49:42.977Z,5.80
2017-11-18T15:50:18.252Z,5.00
2017-11-18T15:50:53.710Z,4.70
2017-11-18T15:51:28.993Z,7.30
2017-11-18T15:52:04.253Z,8.10
2017-11-18T15:52:39.448Z,7.40
2017-11-18T15:53:14.829Z,5.10
2017-11-18T15:53:50.222Z,4.60
2017-11-18T15:54:25.992Z,3.60
2017-11-18T15:55:01.447Z,3.90
2017-11-18T15:55:36.937Z,3.80
2017-11-18T15:56:12.597Z,3.70
2017-11-18T15:56:47.986Z,6.20
2017-11-18T15:57:23.267Z,6.00
2017-11-18T15:57:58.629Z,4.60
2017-11-18T15:58:33.911Z,5.10
2017-11-18T15:59:09.206Z,5.60
2017-11-18T15:59:44.806Z,5.20
2017-11-18T16:00:20.274Z,5.30
2017-11-18T16:00:55.340Z,6.70
2017-11-18T16:01:30.726Z,5.80
2017-11-18T16:02:05.897Z,6.20
2017-11-18T16:02:41.091Z,2.90
2017-11-18T16:03:16.291Z,5.10
2017-11-18T16:03:51.451Z,6.80
2017-11-18T16:04:26.868Z,5.20
2017-11-18T16:05:02.035Z,7.10
2017-11-18T16:05:37.722Z,5.90
2017-11-18T16:06:13.181Z,4.60
2017-11-18T16:06:48.464Z,6.10
2017-11-18T16:07:23.558Z,5.60
2017-11-18T16:07:58.923Z,5.50
2017-11-18T16:08:34.216Z,6.20
2017-11-18T16:09:09.579Z,6.00
2017-11-18T16:09:44.787Z,4.10
2017-11-18T16:10:19.970Z,3.90
2017-11-18T16:10:55.129Z,3.50
2017-11-18T16:11:30.438Z,2.80
2017-11-18T16:12:05.598Z,5.20
2017-11-18T16:12:40.888Z,7.30
2017-11-18T16:13:16.178Z,6.40
2017-11-18T16:13:51.446Z,6.20
2017-11-18T16:14:26.732Z,5.60
2017-11-18T16:15:02.130Z,4.60
2017-11-18T16:15:37.626Z,4.50
2017-11-18T16:16:12.892Z,3.40
2017-11-18T16:16:48.579Z,4.20
2017-11-18T16:17:23.968Z,4.00
2017-11-18T16:17:59.334Z,5.90
2017-11-18T16:18:34.420Z,5.90
2017-11-18T16:19:09.589Z,5.70
2017-11-18T16:19:45.080Z,3.30
2017-11-18T16:20:20.572Z,3.50
2017-11-18T16:20:55.769Z,5.60
2017-11-18T16:21:31.063Z,6.50
2017-11-18T16:22:06.425Z,5.60
2017-11-18T16:22:41.616Z,3.80
2017-11-18T16:23:16.876Z,4.30
2017-11-18T16:23:52.073Z,7.00
2017-11-18T16:24:27.553Z,7.80
2017-11-18T16:25:03.111Z,7.70
2017-11-18T16:25:39.024Z,9.20
2017-11-18T16:26:14.384Z,7.40
2017-11-18T16:26:49.874Z,4.20
2017-11-18T16:27:25.264Z,4.20
2017-11-18T16:28:00.724Z,5.80
2017-11-18T16:28:35.908Z,5.90
2017-11-18T16:29:11.398Z,7.50
2017-11-18T16:29:46.854Z,7.00
2017-11-18T16:30:21.822Z,6.50
2017-11-18T16:30:57.352Z,7.60
2017-11-18T16:31:32.317Z,8.20
2017-11-18T16:32:07.486Z,11.60
2017-11-18T16:32:44.863Z,9.20
2017-11-18T16:33:20.039Z,3.60
2017-11-18T16:33:55.630Z,6.40
2017-11-18T16:34:31.323Z,9.40
2017-11-18T16:35:06.588Z,8.00
2017-11-18T16:35:41.609Z,7.00
2017-11-18T16:36:17.080Z,7.90
2017-11-18T16:36:52.292Z,6.00
2017-11-18T16:37:27.773Z,6.60
2017-11-18T16:38:03.216Z,7.00
2017-11-18T16:38:38.499Z,7.60
2017-11-18T16:39:13.656Z,7.80
2017-11-18T16:39:49.136Z,10.00
2017-11-18T16:40:24.619Z,7.40
2017-11-18T16:41:00.027Z,8.10
2017-11-18T16:41:35.877Z,9.10
2017-11-18T16:42:11.341Z,6.60
2017-11-18T16:42:46.628Z,6.50
2017-11-18T16:43:21.898Z,10.10
2017-11-18T16:43:57.379Z,8.50
2017-11-18T16:44:32.641Z,7.80
2017-11-18T16:45:08.156Z,9.40
2017-11-18T16:45:43.317Z,8.10
2017-11-18T16:46:18.511Z,7.90
2017-11-18T16:46:53.900Z,8.70
2017-11-18T16:47:28.975Z,7.20
2017-11-18T16:48:04.450Z,5.90
2017-11-18T16:48:39.834Z,7.50
2017-11-18T16:49:15.004Z,9.90
2017-11-18T16:49:50.284Z,8.40
2017-11-18T16:50:25.358Z,4.50
2017-11-18T16:51:00.746Z,8.60
2017-11-18T16:51:35.847Z,7.60
2017-11-18T16:52:11.116Z,5.40
2017-11-18T16:52:46.494Z,6.90
2017-11-18T16:53:21.763Z,8.50
2017-11-18T16:53:57.046Z,8.60
2017-11-18T16:54:32.215Z,9.20
2017-11-18T16:55:07.501Z,9.70
2017-11-18T16:55:42.887Z,9.20
2017-11-18T16:56:18.140Z,6.10
2017-11-18T16:56:53.565Z,6.10
2017-11-18T16:57:28.716Z,10.20
2017-11-18T16:58:04.112Z,16.40
2017-11-18T16:58:39.301Z,8.50
2017-11-18T16:59:14.464Z,11.40
2017-11-18T16:59:49.864Z,16.40
2017-11-18T17:00:25.223Z,19.10
2017-11-18T17:01:00.536Z,15.70
2017-11-18T17:01:36.093Z,12.70
2017-11-18T17:02:11.528Z,9.50
2017-11-18T17:02:46.894Z,6.10
2017-11-18T17:03:22.081Z,9.10
2017-11-18T17:03:57.466Z,7.50
2017-11-18T17:04:32.776Z,8.70
2017-11-18T17:05:08.036Z,13.50
2017-11-18T17:05:43.231Z,12.10
2017-11-18T17:06:18.613Z,8.30
2017-11-18T17:06:54.013Z,11.80
2017-11-18T17:07:29.399Z,9.90
2017-11-18T17:08:04.903Z,7.80
2017-11-18T17:08:39.961Z,6.00
2017-11-18T17:09:15.063Z,10.00
2017-11-18T17:09:50.635Z,8.60
2017-11-18T17:10:26.118Z,8.00
2017-11-18T17:11:01.284Z,6.50
2017-11-18T17:11:36.479Z,8.40
2017-11-18T17:12:11.549Z,7.80
2017-11-18T17:12:46.668Z,6.30
2017-11-18T17:13:21.743Z,5.90
2017-11-18T17:13:56.934Z,8.40
2017-11-18T17:14:32.204Z,9.90
2017-11-18T17:15:07.408Z,8.80
2017-11-18T17:15:42.570Z,8.50
2017-11-18T17:16:18.059Z,9.00
2017-11-18T17:16:53.315Z,8.50
2017-11-18T17:17:28.706Z,7.40
2017-11-18T17:18:04.433Z,6.60
2017-11-18T17:18:39.603Z,8.40
2017-11-18T17:19:15.088Z,9.50
2017-11-18T17:19:50.355Z,8.70
2017-11-18T17:20:25.846Z,7.30
2017-11-18T17:21:01.507Z,9.60
2017-11-18T17:21:37.002Z,11.50
2017-11-18T17:22:12.293Z,12.60
2017-11-18T17:22:47.563Z,9.00
2017-11-18T17:23:22.792Z,9.90
2017-11-18T17:23:58.262Z,10.10
2017-11-18T17:24:33.771Z,9.40
2017-11-18T17:25:08.853Z,11.30
2017-11-18T17:25:44.718Z,12.80
2017-11-18T17:26:20.005Z,7.60
2017-11-18T17:26:55.179Z,9.50
2017-11-18T17:27:30.572Z,10.30
2017-11-18T17:28:05.563Z,7.80
2017-11-18T17:28:41.063Z,8.70
2017-11-18T17:29:16.258Z,10.00
2017-11-18T17:29:51.218Z,10.20
2017-11-18T17:30:26.215Z,11.10
2017-11-18T17:31:01.580Z,12.60
2017-11-18T17:31:36.977Z,9.50
2017-11-18T17:32:12.168Z,11.30
2017-11-18T17:32:47.439Z,10.70
2017-11-18T17:33:23.025Z,9.20
2017-11-18T17:33:58.224Z,8.50
2017-11-18T17:34:33.526Z,7.20
2017-11-18T17:35:09.124Z,9.30
2017-11-18T17:35:44.284Z,8.60
2017-11-18T17:36:19.574Z,8.20
2017-11-18T17:36:54.938Z,10.40
2017-11-18T17:37:30.435Z,9.10
2017-11-18T17:38:06.033Z,9.70
2017-11-18T17:38:41.600Z,8.80
2017-11-18T17:39:17.105Z,9.00
2017-11-18T17:39:52.284Z,7.10
2017-11-18T17:40:27.577Z,9.20
2017-11-18T17:41:02.755Z,8.80
2017-11-18T17:41:37.977Z,9.40
2017-11-18T17:42:13.220Z,10.80
2017-11-18T17:42:48.710Z,8.60
2017-11-18T17:43:23.901Z,7.60
2017-11-18T17:43:59.188Z,8.10
2017-11-18T17:44:34.586Z,7.50
2017-11-18T17:45:09.968Z,8.50
2017-11-18T17:45:45.369Z,7.10
2017-11-18T17:46:20.763Z,7.80
2017-11-18T17:46:55.736Z,7.10
2017-11-18T17:47:31.122Z,7.50
2017-11-18T17:48:06.499Z,9.50
2017-11-18T17:48:41.813Z,10.40
2017-11-18T17:49:17.228Z,8.10
2017-11-18T17:49:52.592Z,10.90
2017-11-18T17:50:27.585Z,12.10
2017-11-18T17:51:02.858Z,11.80
2017-11-18T17:51:38.249Z,8.60
2017-11-18T17:52:13.824Z,10.00
2017-11-18T17:52:48.922Z,9.70
2017-11-18T17:53:26.628Z,10.30
2017-11-18T17:54:01.534Z,7.90
2017-11-18T17:54:37.026Z,7.30
2017-11-18T17:55:12.488Z,8.60
2017-11-18T17:55:47.884Z,11.50
2017-11-18T17:56:22.979Z,12.10
2017-11-18T17:56:58.147Z,8.60
2017-11-18T17:57:33.442Z,9.10
2017-11-18T17:58:08.796Z,9.00
2017-11-18T17:58:43.985Z,9.30
2017-11-18T17:59:19.108Z,10.90
2017-11-18T17:59:54.178Z,11.40
2017-11-18T18:00:29.571Z,8.00
2017-11-18T18:01:04.635Z,7.90
2017-11-18T18:01:40.225Z,7.30
2017-11-18T18:02:15.820Z,11.40
2017-11-18T18:02:50.902Z,14.50
2017-11-18T18:03:26.387Z,11.70
2017-11-18T18:04:01.950Z,10.30
2017-11-18T18:04:37.163Z,9.20
2017-11-18T18:05:12.843Z,10.70
2017-11-18T18:05:47.831Z,8.20
2017-11-18T18:06:23.017Z,9.50
2017-11-18T18:06:58.179Z,9.50
2017-11-18T18:07:33.167Z,5.90
2017-11-18T18:08:08.736Z,6.40
2017-11-18T18:08:44.030Z,9.50
2017-11-18T18:09:19.552Z,8.90
2017-11-18T18:09:55.111Z,8.80
2017-11-18T18:10:30.396Z,9.20
2017-11-18T18:11:05.868Z,11.60
2017-11-18T18:11:41.264Z,12.30
2017-11-18T18:12:16.731Z,9.60
2017-11-18T18:12:52.027Z,6.50
2017-11-18T18:13:27.534Z,9.30
2017-11-18T18:14:02.695Z,8.70
2017-11-18T18:14:37.912Z,11.50
2017-11-18T18:15:13.198Z,11.60
2017-11-18T18:15:48.778Z,8.40
2017-11-18T18:16:24.165Z,8.30
2017-11-18T18:16:59.327Z,10.50
2017-11-18T18:17:34.417Z,9.40
2017-11-18T18:18:09.482Z,9.60
2017-11-18T18:18:45.066Z,7.50
2017-11-18T18:19:20.865Z,7.70
2017-11-18T18:19:56.154Z,9.80
2017-11-18T18:20:31.548Z,12.60
2017-11-18T18:21:06.627Z,11.40
2017-11-18T18:21:41.526Z,9.50
2017-11-18T18:22:16.788Z,7.80
2017-11-18T18:22:52.184Z,10.10
2017-11-18T18:23:27.270Z,11.20
2017-11-18T18:24:02.638Z,11.20
2017-11-18T18:24:37.856Z,12.40
2017-11-18T18:25:13.418Z,10.90
2017-11-18T18:25:49.022Z,9.40
2017-11-18T18:26:24.312Z,10.00
2017-11-18T18:26:59.382Z,12.80
2017-11-18T18:27:34.677Z,14.50
2017-11-18T18:28:09.751Z,14.10
2017-11-18T18:28:45.047Z,7.10
2017-11-18T18:29:20.226Z,7.50
2017-11-18T18:29:55.640Z,7.10
2017-11-18T18:30:30.941Z,8.00
2017-11-18T18:31:06.208Z,9.50
2017-11-18T18:31:41.504Z,9.90
2017-11-18T18:32:17.189Z,11.80
2017-11-18T18:32:52.574Z,13.10
2017-11-18T18:33:27.990Z,11.90
2017-11-18T18:34:03.158Z,12.20
2017-11-18T18:34:38.780Z,11.10
2017-11-18T18:35:14.643Z,11.10
2017-11-18T18:35:49.756Z,11.40
2017-11-18T18:36:25.442Z,13.90
2017-11-18T18:37:00.941Z,14.10
2017-11-18T18:37:36.235Z,10.70
2017-11-18T18:38:11.498Z,8.10
2017-11-18T18:38:46.808Z,10.30
2017-11-18T18:39:22.474Z,13.60
2017-11-18T18:39:57.794Z,15.20
2017-11-18T18:40:32.967Z,13.70
2017-11-18T18:41:08.461Z,13.20
2017-11-18T18:41:44.152Z,10.40
2017-11-18T18:42:19.316Z,11.10
2017-11-18T18:42:55.113Z,11.50
2017-11-18T18:43:30.379Z,14.10
2017-11-18T18:44:05.973Z,12.70
2017-11-18T18:44:41.267Z,11.70
2017-11-18T18:45:16.558Z,13.60
2017-11-18T18:45:51.759Z,13.90
2017-11-18T18:46:27.219Z,14.30
2017-11-18T18:47:02.617Z,13.10
2017-11-18T18:47:38.317Z,12.70
2017-11-18T18:48:13.479Z,11.60
2017-11-18T18:48:48.671Z,12.40
2017-11-18T18:49:23.937Z,14.60
2017-11-18T18:49:59.143Z,16.90
2017-11-18T18:50:34.560Z,16.20
2017-11-18T18:51:09.965Z,14.30
2017-11-18T18:51:44.920Z,16.60
2017-11-18T18:52:19.982Z,15.10
2017-11-18T18:52:55.685Z,14.30
2017-11-18T18:53:30.966Z,19.50
2017-11-18T18:54:06.262Z,21.80
2017-11-18T18:54:41.654Z,17.70
2017-11-18T18:55:16.821Z,13.00
2017-11-18T18:55:52.140Z,14.60
2017-11-18T18:56:27.510Z,15.70
2017-11-18T18:57:02.812Z,17.10
2017-11-18T18:57:37.991Z,19.50
2017-11-18T18:58:13.567Z,16.10
2017-11-18T18:58:48.965Z,11.70
2017-11-18T18:59:24.431Z,12.30
2017-11-18T18:59:59.922Z,17.10
2017-11-18T19:00:35.219Z,25.30
2017-11-18T19:01:10.718Z,19.90
2017-11-18T19:01:46.022Z,20.30
2017-11-18T19:02:21.210Z,15.00
2017-11-18T19:02:56.298Z,21.10
2017-11-18T19:03:31.471Z,27.50
2017-11-18T19:04:06.862Z,22.80
2017-11-18T19:04:42.231Z,14.50
2017-11-18T19:05:17.521Z,12.30
2017-11-18T19:05:52.690Z,11.30
2017-11-18T19:06:28.011Z,16.70
2017-11-18T19:07:03.102Z,17.70
2017-11-18T19:07:38.775Z,17.70
2017-11-18T19:08:13.969Z,12.90
2017-11-18T19:08:49.241Z,17.30
2017-11-18T19:09:24.457Z,18.90
2017-11-18T19:09:59.766Z,16.90
2017-11-18T19:10:35.057Z,13.50
2017-11-18T19:11:10.467Z,12.20
2017-11-18T19:11:45.997Z,12.50
2017-11-18T19:12:21.304Z,11.30
2017-11-18T19:12:57.022Z,11.60
2017-11-18T19:13:32.310Z,11.30
2017-11-18T19:14:07.921Z,13.00
2017-11-18T19:14:43.110Z,14.40
2017-11-18T19:15:18.523Z,15.70
2017-11-18T19:15:53.964Z,15.00
2017-11-18T19:16:29.231Z,18.50
2017-11-18T19:17:04.767Z,17.80
2017-11-18T19:17:40.072Z,16.50
2017-11-18T19:18:15.284Z,17.20
2017-11-18T19:18:50.587Z,16.40
2017-11-18T19:19:25.994Z,13.70
2017-11-18T19:20:01.408Z,14.60
2017-11-18T19:20:36.906Z,14.40
2017-11-18T19:21:12.149Z,15.40
2017-11-18T19:21:47.445Z,16.90
2017-11-18T19:22:23.191Z,17.00
2017-11-18T19:22:58.908Z,15.10
2017-11-18T19:23:34.397Z,14.40
2017-11-18T19:24:09.617Z,11.80
2017-11-18T19:24:44.699Z,12.10
2017-11-18T19:25:20.223Z,13.00
2017-11-18T19:25:55.736Z,13.90
2017-11-18T19:26:31.228Z,15.20
2017-11-18T19:27:06.455Z,13.40
2017-11-18T19:27:42.183Z,18.10
2017-11-18T19:28:18.046Z,17.20
2017-11-18T19:28:53.217Z,19.50
2017-11-18T19:29:28.718Z,23.20
2017-11-18T19:30:03.929Z,12.70
2017-11-18T19:30:38.900Z,11.10
2017-11-18T19:31:14.104Z,16.70
2017-11-18T19:31:49.383Z,18.00
2017-11-18T19:32:24.877Z,13.50
2017-11-18T19:33:00.682Z,14.20
2017-11-18T19:33:36.078Z,16.90
2017-11-18T19:34:11.374Z,18.10
2017-11-18T19:34:46.747Z,21.40
2017-11-18T19:35:21.974Z,15.90
2017-11-18T19:35:57.240Z,13.00
2017-11-18T19:36:32.240Z,12.60
2017-11-18T19:37:07.736Z,13.40
2017-11-18T19:37:42.924Z,15.30
2017-11-18T19:38:18.354Z,14.60
2017-11-18T19:38:53.642Z,17.40
2017-11-18T19:39:28.957Z,14.50
2017-11-18T19:40:04.168Z,13.20
2017-11-18T19:40:39.553Z,19.50
2017-11-18T19:41:14.793Z,12.90
2017-11-18T19:41:50.267Z,12.60
2017-11-18T19:42:25.566Z,11.70
2017-11-18T19:43:00.741Z,13.00
2017-11-18T19:43:35.972Z,12.20
2017-11-18T19:44:11.178Z,13.60
2017-11-18T19:44:46.354Z,14.90
2017-11-18T19:45:21.663Z,11.30
2017-11-18T19:45:56.742Z,13.20
2017-11-18T19:46:32.053Z,12.30
2017-11-18T19:47:07.154Z,8.50
2017-11-18T19:47:42.543Z,9.70
2017-11-18T19:48:17.762Z,11.70
2017-11-18T19:48:52.842Z,12.00
2017-11-18T19:49:28.440Z,14.20
2017-11-18T19:50:03.518Z,14.00
2017-11-18T19:50:38.822Z,9.20
2017-11-18T19:51:14.126Z,12.60
2017-11-18T19:51:49.607Z,12.30
2017-11-18T19:52:24.728Z,12.40
2017-11-18T19:53:00.103Z,12.80
2017-11-18T19:53:35.541Z,9.70
2017-11-18T19:54:10.889Z,12.10
2017-11-18T19:54:46.862Z,12.80
2017-11-18T19:55:22.565Z,13.50
2017-11-18T19:55:58.052Z,11.20
2017-11-18T19:56:33.456Z,10.30
2017-11-18T19:57:08.661Z,12.30
2017-11-18T19:57:44.148Z,10.70
2017-11-18T19:58:19.651Z,10.50
2017-11-18T19:58:55.230Z,12.90
2017-11-18T19:59:30.454Z,13.80
2017-11-18T20:00:06.561Z,11.90
2017-11-18T20:00:41.945Z,15.00
2017-11-18T20:01:17.349Z,11.00
2017-11-18T20:01:52.821Z,7.00
2017-11-18T20:02:28.121Z,10.30
2017-11-18T20:03:03.709Z,14.70
2017-11-18T20:03:38.916Z,11.40
2017-11-18T20:04:14.555Z,10.50
2017-11-18T20:04:50.160Z,10.40
2017-11-18T20:05:25.361Z,13.00
2017-11-18T20:06:00.838Z,15.00
2017-11-18T20:06:36.340Z,19.50
2017-11-18T20:07:12.043Z,18.40
2017-11-18T20:07:47.614Z,12.50
2017-11-18T20:08:23.214Z,12.20
2017-11-18T20:08:58.710Z,12.50
2017-11-18T20:09:34.010Z,10.90
2017-11-18T20:10:09.534Z,16.80
2017-11-18T20:10:44.620Z,11.90
2017-11-18T20:11:19.919Z,8.80
2017-11-18T20:11:55.731Z,11.60
2017-11-18T20:12:31.190Z,12.10
2017-11-18T20:13:06.395Z,10.90
2017-11-18T20:13:41.659Z,10.40
2017-11-18T20:14:16.867Z,11.90
2017-11-18T20:14:52.157Z,10.30
2017-11-18T20:15:27.294Z,8.80
2017-11-18T20:16:02.683Z,9.80
2017-11-18T20:16:38.009Z,12.40
2017-11-18T20:17:13.206Z,13.10
2017-11-18T20:17:48.481Z,13.60
2017-11-18T20:18:23.588Z,13.30
2017-11-18T20:18:58.896Z,17.90
2017-11-18T20:19:34.208Z,17.50
2017-11-18T20:20:09.809Z,12.40
2017-11-18T20:20:45.113Z,9.80
2017-11-18T20:21:20.515Z,12.20
2017-11-18T20:21:55.997Z,12.30
2017-11-18T20:22:31.295Z,14.20
2017-11-18T20:23:06.497Z,9.70
2017-11-18T20:23:41.873Z,10.80
2017-11-18T20:24:17.170Z,13.20
2017-11-18T20:24:52.367Z,13.50
2017-11-18T20:25:27.690Z,12.70
2017-11-18T20:26:02.993Z,13.70
2017-11-18T20:26:38.191Z,18.60
2017-11-18T20:27:13.597Z,15.60
2017-11-18T20:27:48.794Z,10.30
2017-11-18T20:28:24.250Z,10.90
2017-11-18T20:28:59.453Z,14.30
2017-11-18T20:29:34.677Z,15.80
2017-11-18T20:30:09.883Z,12.90
2017-11-18T20:30:45.389Z,14.20
2017-11-18T20:31:20.440Z,14.40
2017-11-18T20:31:55.530Z,14.60
2017-11-18T20:32:30.544Z,15.10
2017-11-18T20:33:05.865Z,15.10
2017-11-18T20:33:41.058Z,13.20
2017-11-18T20:34:16.786Z,13.20
2017-11-18T20:34:52.223Z,16.50
2017-11-18T20:35:27.450Z,14.40
2017-11-18T20:36:03.245Z,11.70
2017-11-18T20:36:38.889Z,8.90
2017-11-18T20:37:14.139Z,12.80
2017-11-18T20:37:49.427Z,11.80
2017-11-18T20:38:24.543Z,12.90
2017-11-18T20:38:59.835Z,17.40
2017-11-18T20:39:35.255Z,15.10
2017-11-18T20:40:10.576Z,11.00
2017-11-18T20:40:45.768Z,11.80
2017-11-18T20:41:21.087Z,14.40
2017-11-18T20:41:56.414Z,17.20
2017-11-18T20:42:32.040Z,14.20
2017-11-18T20:43:07.494Z,12.20
2017-11-18T20:43:42.991Z,11.00
2017-11-18T20:44:18.611Z,15.40
2017-11-18T20:44:53.804Z,15.50
2017-11-18T20:45:29.249Z,14.60
2017-11-18T20:46:04.648Z,15.00
2017-11-18T20:46:40.055Z,17.60
2017-11-18T20:47:15.487Z,12.40
2017-11-18T20:47:50.777Z,12.20
2017-11-18T20:48:25.996Z,16.00
2017-11-18T20:49:01.300Z,15.50
2017-11-18T20:49:36.620Z,19.80
2017-11-18T20:50:11.781Z,17.40
2017-11-18T20:50:47.079Z,13.20
2017-11-18T20:51:22.306Z,17.90
2017-11-18T20:51:57.602Z,16.40
2017-11-18T20:52:32.815Z,13.90
2017-11-18T20:53:08.007Z,14.10
2017-11-18T20:53:43.195Z,15.50
2017-11-18T20:54:18.469Z,11.60
2017-11-18T20:54:53.552Z,16.20
2017-11-18T20:55:29.068Z,16.20
2017-11-18T20:56:04.543Z,15.10
2017-11-18T20:56:40.118Z,16.90
2017-11-18T20:57:15.463Z,15.30
2017-11-18T20:57:50.860Z,16.10
2017-11-18T20:58:26.060Z,18.30
2017-11-18T20:59:01.365Z,16.20
2017-11-18T20:59:36.647Z,13.80
2017-11-18T21:00:12.317Z,15.90
2017-11-18T21:00:47.514Z,18.30
2017-11-18T21:01:22.924Z,16.50
2017-11-18T21:01:57.994Z,13.90
2017-11-18T21:02:33.598Z,15.70
2017-11-18T21:03:09.094Z,21.20
2017-11-18T21:03:44.397Z,21.50
2017-11-18T21:04:19.699Z,17.10
2017-11-18T21:04:54.874Z,15.10
2017-11-18T21:05:29.961Z,14.50
2017-11-18T21:06:05.248Z,16.40
2017-11-18T21:06:40.533Z,19.40
2017-11-18T21:07:15.928Z,20.30
2017-11-18T21:07:51.114Z,19.90
2017-11-18T21:08:27.138Z,18.30
2017-11-18T21:09:02.625Z,15.40
2017-11-18T21:09:38.020Z,15.30
2017-11-18T21:10:13.292Z,16.00
2017-11-18T21:10:48.578Z,18.10
2017-11-18T21:11:24.174Z,18.80
2017-11-18T21:11:59.546Z,15.80
2017-11-18T21:12:35.240Z,15.20
2017-11-18T21:13:10.312Z,19.60
2017-11-18T21:13:45.441Z,19.70
2017-11-18T21:14:20.911Z,19.10
2017-11-18T21:14:56.199Z,17.50
2017-11-18T21:15:31.203Z,16.70
2017-11-18T21:16:06.670Z,15.60
2017-11-18T21:16:42.170Z,16.50
2017-11-18T21:17:17.441Z,16.10
2017-11-18T21:17:52.734Z,15.80
2017-11-18T21:18:28.028Z,15.20
2017-11-18T21:19:03.292Z,13.90
2017-11-18T21:19:38.690Z,13.10
2017-11-18T21:20:14.056Z,14.20
2017-11-18T21:20:49.562Z,16.30
2017-11-18T21:21:24.745Z,20.70
2017-11-18T21:22:00.319Z,21.00
2017-11-18T21:22:35.518Z,18.60
2017-11-18T21:23:10.985Z,19.30
2017-11-18T21:23:46.189Z,18.50
2017-11-18T21:24:21.879Z,16.40
2017-11-18T21:24:56.976Z,13.30
2017-11-18T21:25:32.673Z,20.30
2017-11-18T21:26:08.043Z,20.20
2017-11-18T21:26:43.452Z,15.20
2017-11-18T21:27:18.716Z,17.10
2017-11-18T21:27:54.218Z,15.30
2017-11-18T21:28:29.608Z,18.50
2017-11-18T21:29:04.799Z,19.80
2017-11-18T21:29:40.223Z,15.20
2017-11-18T21:30:15.294Z,12.80
2017-11-18T21:30:50.597Z,15.70
2017-11-18T21:31:26.184Z,18.70
2017-11-18T21:32:01.355Z,17.10
2017-11-18T21:32:36.888Z,17.20
2017-11-18T21:33:12.257Z,16.70
2017-11-18T21:33:47.356Z,19.30
2017-11-18T21:34:22.825Z,19.60
2017-11-18T21:34:58.051Z,19.10
2017-11-18T21:35:33.358Z,18.50
2017-11-18T21:36:08.828Z,16.20
2017-11-18T21:36:44.420Z,17.70
2017-11-18T21:37:19.797Z,19.20
2017-11-18T21:37:55.182Z,19.80
2017-11-18T21:38:30.586Z,22.40
2017-11-18T21:39:05.774Z,17.50
2017-11-18T21:39:40.962Z,18.20
2017-11-18T21:40:16.325Z,22.90
2017-11-18T21:40:51.749Z,18.60
2017-11-18T21:41:27.035Z,18.70
2017-11-18T21:42:02.530Z,15.80
2017-11-18T21:42:40.049Z,18.70
2017-11-18T21:43:15.327Z,23.40
2017-11-18T21:43:51.021Z,14.40
2017-11-18T21:44:26.437Z,15.10
2017-11-18T21:45:02.014Z,17.20
2017-11-18T21:45:37.351Z,17.10
2017-11-18T21:46:12.523Z,13.30
2017-11-18T21:46:47.728Z,23.90
2017-11-18T21:47:23.508Z,38.30
2017-11-18T21:47:58.829Z,28.70
2017-11-18T21:48:34.133Z,15.50
2017-11-18T21:49:09.528Z,13.20
2017-11-18T21:49:45.146Z,18.40
2017-11-18T21:50:20.417Z,29.40
2017-11-18T21:50:56.063Z,22.60
2017-11-18T21:51:31.601Z,16.40
2017-11-18T21:52:06.783Z,14.50
2017-11-18T21:52:41.990Z,12.20
2017-11-18T21:53:17.201Z,23.60
2017-11-18T21:53:52.530Z,26.80
2017-11-18T21:54:27.781Z,19.80
2017-11-18T21:55:02.956Z,21.90
2017-11-18T21:55:38.753Z,23.20
2017-11-18T21:56:13.887Z,26.70
2017-11-18T21:56:49.423Z,22.50
2017-11-18T21:57:24.715Z,19.00
2017-11-18T21:58:00.117Z,16.90
2017-11-18T21:58:35.410Z,29.20
2017-11-18T21:59:10.988Z,28.70
2017-11-18T21:59:46.384Z,19.60
2017-11-18T22:00:21.467Z,43.80
2017-11-18T22:00:56.764Z,48.40
2017-11-18T22:01:31.986Z,23.70
2017-11-18T22:02:07.353Z,22.80
2017-11-18T22:02:42.742Z,25.00
2017-11-18T22:03:18.111Z,27.70
2017-11-18T22:03:53.351Z,25.00
2017-11-18T22:04:28.718Z,17.70
2017-11-18T22:05:04.236Z,15.60
2017-11-18T22:05:39.522Z,20.40
2017-11-18T22:06:15.011Z,20.30
2017-11-18T22:06:50.238Z,13.30
2017-11-18T22:07:25.429Z,13.40
2017-11-18T22:08:00.733Z,17.40
2017-11-18T22:08:36.062Z,17.30
2017-11-18T22:09:11.318Z,13.60
2017-11-18T22:09:46.636Z,13.80
2017-11-18T22:10:22.152Z,15.00
2017-11-18T22:10:57.560Z,17.20
2017-11-18T22:11:32.843Z,16.80
2017-11-18T22:12:08.351Z,15.70
2017-11-18T22:12:43.694Z,13.80
2017-11-18T22:13:19.062Z,13.70
2017-11-18T22:13:54.587Z,13.30
2017-11-18T22:14:30.085Z,15.40
2017-11-18T22:15:05.353Z,20.50
2017-11-18T22:15:40.851Z,24.50
2017-11-18T22:16:16.078Z,20.60
2017-11-18T22:16:51.266Z,21.20
2017-11-18T22:17:26.440Z,17.80
2017-11-18T22:18:01.505Z,19.80
2017-11-18T22:18:36.854Z,21.00
2017-11-18T22:19:12.135Z,16.90
2017-11-18T22:19:47.450Z,17.10
2017-11-18T22:20:22.853Z,17.00
2017-11-18T22:20:58.040Z,16.30
2017-11-18T22:21:33.528Z,16.60
2017-11-18T22:22:08.697Z,16.50
2017-11-18T22:22:44.315Z,17.70
2017-11-18T22:23:19.784Z,17.70
2017-11-18T22:23:55.075Z,17.90
2017-11-18T22:24:30.364Z,22.00
2017-11-18T22:25:05.642Z,25.20
2017-11-18T22:25:41.291Z,19.40
2017-11-18T22:26:17.034Z,15.40
2017-11-18T22:26:52.611Z,17.50
2017-11-18T22:27:28.007Z,17.20
2017-11-18T22:28:03.700Z,15.00
2017-11-18T22:28:38.903Z,23.90
2017-11-18T22:29:14.484Z,18.00
2017-11-18T22:29:49.790Z,16.10
2017-11-18T22:30:25.125Z,16.70
2017-11-18T22:31:00.354Z,13.10
2017-11-18T22:31:35.666Z,15.70
2017-11-18T22:32:10.773Z,17.70
2017-11-18T22:32:45.895Z,15.50
2017-11-18T22:33:21.311Z,13.30
2017-11-18T22:33:56.442Z,15.00
2017-11-18T22:34:31.742Z,13.00
2017-11-18T22:35:07.308Z,15.00
2017-11-18T22:35:42.813Z,19.10
2017-11-18T22:36:18.121Z,14.00
2017-11-18T22:36:53.513Z,16.50
2017-11-18T22:37:28.815Z,14.80
2017-11-18T22:38:04.189Z,13.40
2017-11-18T22:38:39.408Z,13.10
2017-11-18T22:39:14.686Z,14.70
2017-11-18T22:39:49.982Z,15.00
2017-11-18T22:40:25.363Z,13.20
2017-11-18T22:41:01.149Z,15.20
2017-11-18T22:41:36.546Z,19.50
2017-11-18T22:42:11.706Z,16.80
2017-11-18T22:42:47.204Z,19.40
2017-11-18T22:43:22.484Z,17.70
2017-11-18T22:43:58.113Z,12.70
2017-11-18T22:44:33.380Z,15.00
2017-11-18T22:45:08.671Z,17.20
2017-11-18T22:45:43.867Z,18.40
2017-11-18T22:46:19.148Z,16.30
2017-11-18T22:46:54.435Z,14.60
2017-11-18T22:47:29.724Z,12.80
2017-11-18T22:48:05.323Z,10.90
2017-11-18T22:48:40.403Z,15.90
2017-11-18T22:49:15.722Z,14.90
2017-11-18T22:49:50.897Z,14.20
2017-11-18T22:50:26.201Z,12.60
2017-11-18T22:51:01.707Z,16.40
2017-11-18T22:51:37.283Z,18.90
2017-11-18T22:52:12.684Z,14.70
2017-11-18T22:52:48.053Z,16.20
2017-11-18T22:53:23.258Z,15.70
2017-11-18T22:53:58.757Z,19.00
2017-11-18T22:54:33.964Z,21.50
2017-11-18T22:55:09.453Z,22.20
2017-11-18T22:55:44.731Z,15.10
2017-11-18T22:56:20.317Z,13.20
2017-11-18T22:56:55.710Z,16.10
2017-11-18T22:57:31.080Z,19.90
2017-11-18T22:58:06.175Z,24.70
2017-11-18T22:58:41.445Z,21.70
2017-11-18T22:59:16.750Z,12.70
2017-11-18T22:59:51.959Z,13.70
2017-11-18T23:00:27.444Z,16.10
2017-11-18T23:01:02.845Z,18.80
2017-11-18T23:01:38.312Z,17.40
2017-11-18T23:02:13.997Z,16.30
2017-11-18T23:02:49.369Z,11.90
2017-11-18T23:03:24.854Z,11.20
2017-11-18T23:04:00.148Z,13.40
2017-11-18T23:04:35.520Z,14.70
2017-11-18T23:05:11.041Z,10.40
2017-11-18T23:05:46.212Z,16.30
2017-11-18T23:06:21.609Z,19.30
2017-11-18T23:06:57.098Z,16.50
2017-11-18T23:07:32.285Z,18.10
2017-11-18T23:08:07.991Z,15.70
2017-11-18T23:08:43.306Z,19.10
2017-11-18T23:09:18.659Z,21.30
2017-11-18T23:09:53.951Z,14.00
2017-11-18T23:10:29.552Z,10.60
2017-11-18T23:11:04.852Z,12.20
2017-11-18T23:11:40.514Z,11.20
2017-11-18T23:12:16.110Z,14.30
2017-11-18T23:12:51.486Z,16.90
2017-11-18T23:13:26.888Z,14.70
2017-11-18T23:14:02.190Z,10.90
2017-11-18T23:14:37.560Z,21.90
2017-11-18T23:15:12.954Z,19.60
2017-11-18T23:15:48.052Z,16.70
2017-11-18T23:16:23.546Z,19.50
2017-11-18T23:16:59.144Z,22.30
2017-11-18T23:17:34.410Z,19.20
2017-11-18T23:18:10.006Z,21.80
2017-11-18T23:18:45.572Z,18.90
2017-11-18T23:19:20.877Z,13.40